ESIB

Såtenäs Air Base Airport

Såtenäs, Sweden
METAR ESIB 201650Z AUTO 22003KT 9999 NCD 08/06 Q1023
Observed Flight Rules
Oct-20 @ 16:50 UTC (21 minutes ago) Visual Flight Rules
Wind Visibility Clouds
220° at 3 knots 10,000+ meters
  • Clear skies
Temperatures Readings
Current 8°C / 46°F
Dewpoint 6°C / 43°F
Humidity 87%
Altimeter 30.21" Hg
Pressure 1023 hPa
Elevation 74
METAR ESIB 201650Z AUTO 22003KT 9999 NCD 08/06 Q1023
Observed Flight Rules
Oct-20 @ 16:50 UTC
(21 minutes ago)
VFR
Wind Visibility
220° at 3 knots 10,000+ meters
Clouds
  • Clear skies
Temperature Dewpoint
8°C / 46°F 6°C / 43°F
Humidity Altimeter Pressure
87% 30.21" Hg 1023 hPa